createdAt,value
2022-11-18T00:01:22.186Z,1.23
2022-11-18T00:03:49.577Z,1.40
2022-11-18T00:06:22.343Z,1.27
2022-11-18T00:08:49.347Z,1.30
2022-11-18T00:11:37.564Z,1.50
2022-11-18T00:14:21.316Z,1.20
2022-11-18T00:16:50.973Z,1.58
2022-11-18T00:19:18.980Z,1.23
2022-11-18T00:21:46.154Z,1.42
2022-11-18T00:24:12.829Z,1.50
2022-11-18T00:26:39.544Z,1.42
2022-11-18T00:29:06.269Z,1.52
2022-11-18T00:31:33.016Z,1.40
2022-11-18T00:33:59.698Z,1.27
2022-11-18T00:36:26.406Z,1.70
2022-11-18T00:38:53.689Z,1.25
2022-11-18T00:41:20.574Z,1.33
2022-11-18T00:43:47.290Z,1.30
2022-11-18T00:46:13.986Z,1.20
2022-11-18T00:48:41.051Z,1.67
2022-11-18T00:51:18.611Z,1.73
2022-11-18T00:53:45.724Z,1.40
2022-11-18T00:56:12.482Z,1.47
2022-11-18T00:58:39.168Z,1.42
2022-11-18T01:01:06.171Z,4.38
2022-11-18T01:03:33.121Z,1.38
2022-11-18T01:05:59.767Z,1.50
2022-11-18T01:08:26.484Z,1.23
2022-11-18T01:10:53.695Z,1.30
2022-11-18T01:13:23.840Z,1.30
2022-11-18T01:16:00.363Z,1.20
2022-11-18T01:18:30.513Z,1.25
2022-11-18T01:21:02.069Z,1.00
2022-11-18T01:23:28.767Z,1.30
2022-11-18T01:25:55.900Z,1.10
2022-11-18T01:28:24.062Z,1.08
2022-11-18T01:30:51.264Z,1.50
2022-11-18T01:33:17.956Z,1.00
2022-11-18T01:35:44.819Z,5.25
2022-11-18T01:38:14.210Z,1.40
2022-11-18T01:40:41.414Z,1.00
2022-11-18T01:43:16.672Z,1.10
2022-11-18T01:45:45.717Z,1.00
2022-11-18T01:48:34.119Z,1.33
2022-11-18T01:51:10.953Z,1.20
2022-11-18T01:53:41.893Z,0.75
2022-11-18T01:56:14.458Z,0.93
2022-11-18T01:58:50.149Z,0.83
2022-11-18T02:01:17.019Z,0.95
2022-11-18T02:03:45.726Z,1.00
2022-11-18T02:06:13.745Z,0.60
2022-11-18T02:08:41.740Z,0.60
2022-11-18T02:11:33.609Z,1.03
2022-11-18T02:14:03.855Z,0.65
2022-11-18T02:16:52.331Z,0.68
2022-11-18T02:19:47.016Z,0.52
2022-11-18T02:22:39.700Z,1.00
2022-11-18T02:25:15.260Z,0.60
2022-11-18T02:28:03.153Z,0.70
2022-11-18T02:30:33.966Z,0.50
2022-11-18T02:33:08.820Z,0.65
2022-11-18T02:35:46.729Z,0.63
2022-11-18T02:38:23.468Z,0.90
2022-11-18T02:40:58.471Z,0.65
2022-11-18T02:43:31.076Z,0.75
2022-11-18T02:46:02.837Z,0.90
2022-11-18T02:48:33.817Z,0.85
2022-11-18T02:51:03.289Z,0.50
2022-11-18T02:53:32.054Z,0.60
2022-11-18T02:56:00.313Z,0.70
2022-11-18T02:58:27.022Z,0.80
2022-11-18T03:00:59.089Z,0.63
2022-11-18T03:03:31.912Z,0.70
2022-11-18T03:06:08.070Z,0.60
2022-11-18T03:08:58.784Z,0.70
2022-11-18T03:11:29.513Z,0.68
2022-11-18T03:14:26.337Z,0.80
2022-11-18T03:17:00.761Z,0.80
2022-11-18T03:19:42.621Z,0.60
2022-11-18T03:22:15.264Z,0.85
2022-11-18T03:24:51.605Z,0.80
2022-11-18T03:27:31.340Z,1.25
2022-11-18T03:30:04.766Z,1.03
2022-11-18T03:32:36.369Z,1.05
2022-11-18T03:35:20.574Z,0.80
2022-11-18T03:37:50.647Z,0.50
2022-11-18T03:40:26.506Z,0.60
2022-11-18T03:43:24.774Z,0.53
2022-11-18T03:45:56.654Z,0.50
2022-11-18T03:48:28.644Z,0.70
2022-11-18T03:51:01.364Z,0.60
2022-11-18T03:53:32.773Z,0.50
2022-11-18T03:56:17.610Z,3.50
2022-11-18T03:58:57.173Z,1.42
2022-11-18T04:01:57.993Z,0.35
2022-11-18T04:04:26.432Z,0.60
2022-11-18T04:07:32.532Z,0.50
2022-11-18T04:10:14.170Z,0.60
2022-11-18T04:12:53.041Z,0.60
2022-11-18T04:15:19.939Z,0.70
2022-11-18T04:17:46.586Z,0.40
2022-11-18T04:20:17.072Z,0.50
2022-11-18T04:22:44.321Z,0.47
2022-11-18T04:25:11.427Z,0.30
2022-11-18T04:27:38.414Z,0.70
2022-11-18T04:30:06.409Z,0.40
2022-11-18T04:32:33.418Z,0.60
2022-11-18T04:35:00.084Z,0.47
2022-11-18T04:37:26.901Z,0.50
2022-11-18T04:39:53.606Z,0.93
2022-11-18T04:42:20.251Z,0.50
2022-11-18T04:44:46.887Z,0.68
2022-11-18T04:47:13.707Z,1.20
2022-11-18T04:49:40.442Z,1.08
2022-11-18T04:52:07.263Z,1.40
2022-11-18T04:54:33.940Z,1.70
2022-11-18T04:57:00.637Z,2.30
2022-11-18T04:59:29.249Z,2.03
2022-11-18T05:01:57.106Z,1.10
2022-11-18T05:04:26.254Z,0.70
2022-11-18T05:06:53.441Z,22.35
2022-11-18T05:09:20.561Z,4.07
2022-11-18T05:12:05.865Z,0.90
2022-11-18T05:14:33.060Z,0.80
2022-11-18T05:17:01.529Z,1.00
2022-11-18T05:19:28.326Z,0.93
2022-11-18T05:21:55.446Z,1.30
2022-11-18T05:24:24.168Z,1.33
2022-11-18T05:26:54.776Z,1.00
2022-11-18T05:29:22.017Z,0.80
2022-11-18T05:31:49.332Z,0.85
2022-11-18T05:34:17.426Z,1.30
2022-11-18T05:36:44.346Z,1.87
2022-11-18T05:39:11.001Z,1.77
2022-11-18T05:41:56.451Z,1.70
2022-11-18T05:44:23.049Z,1.95
2022-11-18T05:46:49.712Z,1.60
2022-11-18T05:49:16.746Z,1.60
2022-11-18T05:51:43.633Z,2.00
2022-11-18T05:54:14.301Z,2.40
2022-11-18T05:56:47.852Z,2.33
2022-11-18T05:59:14.877Z,2.80
2022-11-18T06:01:48.025Z,3.20
2022-11-18T06:04:26.634Z,4.28
2022-11-18T06:06:58.931Z,4.22
2022-11-18T06:09:30.960Z,10.50
2022-11-18T06:12:00.675Z,5.93
2022-11-18T06:14:48.612Z,7.50
2022-11-18T06:17:22.911Z,5.70
2022-11-18T06:19:49.800Z,7.50
2022-11-18T06:22:16.593Z,6.60
2022-11-18T06:24:44.257Z,3.15
2022-11-18T06:27:11.961Z,2.30
2022-11-18T06:29:38.618Z,3.08
2022-11-18T06:32:05.606Z,4.07
2022-11-18T06:34:35.618Z,1.88
2022-11-18T06:37:17.877Z,1.63
2022-11-18T06:39:44.574Z,2.20
2022-11-18T06:42:11.865Z,2.50
2022-11-18T06:44:38.557Z,2.70
2022-11-18T06:47:05.501Z,4.10
2022-11-18T06:49:32.220Z,5.70
2022-11-18T06:51:58.892Z,4.70
2022-11-18T06:54:25.548Z,6.57
2022-11-18T06:56:52.273Z,7.40
2022-11-18T06:59:23.671Z,7.68
2022-11-18T07:01:51.781Z,6.40
2022-11-18T07:04:18.473Z,5.53
2022-11-18T07:06:45.137Z,5.60
2022-11-18T07:09:11.971Z,5.55
2022-11-18T07:11:41.218Z,5.72
2022-11-18T07:14:09.096Z,4.78
2022-11-18T07:16:36.721Z,5.20
2022-11-18T07:19:09.975Z,3.72
2022-11-18T07:21:37.154Z,2.83
2022-11-18T07:24:07.093Z,3.35
2022-11-18T07:26:35.035Z,3.60
2022-11-18T07:29:02.003Z,1.13
2022-11-18T07:31:28.680Z,1.40
2022-11-18T07:33:55.726Z,0.98
2022-11-18T07:36:29.659Z,0.98
2022-11-18T07:39:00.335Z,1.70
2022-11-18T07:41:29.609Z,1.00
2022-11-18T07:44:00.690Z,0.60
2022-11-18T07:46:32.120Z,1.00
2022-11-18T07:49:01.005Z,1.30
2022-11-18T07:51:30.467Z,0.80
2022-11-18T07:53:57.373Z,0.87
2022-11-18T07:56:24.156Z,0.90
2022-11-18T07:58:55.503Z,1.77
2022-11-18T08:01:29.130Z,0.90
2022-11-18T08:03:56.357Z,1.05
2022-11-18T08:06:23.366Z,1.53
2022-11-18T08:08:50.225Z,2.10
2022-11-18T08:11:22.644Z,4.63
2022-11-18T08:13:51.525Z,1.65
2022-11-18T08:16:21.669Z,0.80
2022-11-18T08:18:48.808Z,2.80
2022-11-18T08:21:18.330Z,3.83
2022-11-18T08:23:50.547Z,1.75
2022-11-18T08:26:17.307Z,1.42
2022-11-18T08:28:45.112Z,1.25
2022-11-18T08:31:14.022Z,0.70
2022-11-18T08:33:41.172Z,1.35
2022-11-18T08:36:16.782Z,0.70
2022-11-18T08:38:44.124Z,0.60
2022-11-18T08:41:25.625Z,0.85
2022-11-18T08:43:52.306Z,0.87
2022-11-18T08:46:20.025Z,0.80
2022-11-18T08:48:46.811Z,0.77
2022-11-18T08:51:13.904Z,0.80
2022-11-18T08:53:40.619Z,0.90
2022-11-18T08:56:08.000Z,0.60
2022-11-18T08:58:34.626Z,0.73
2022-11-18T09:01:08.271Z,1.20
2022-11-18T09:03:35.297Z,0.88
2022-11-18T09:06:10.249Z,0.95
2022-11-18T09:08:37.556Z,0.90
2022-11-18T09:11:13.661Z,0.70
2022-11-18T09:14:04.311Z,0.88
2022-11-18T09:16:29.784Z,1.35
2022-11-18T09:18:57.327Z,0.77
2022-11-18T09:21:24.712Z,0.40
2022-11-18T09:23:51.683Z,0.77
2022-11-18T09:26:20.998Z,1.17
2022-11-18T09:28:47.670Z,0.70
2022-11-18T09:31:16.606Z,0.75
2022-11-18T09:33:43.699Z,0.70
2022-11-18T09:36:22.583Z,0.52
2022-11-18T09:38:53.165Z,0.60
2022-11-18T09:41:46.365Z,0.70
2022-11-18T09:44:33.340Z,0.80
2022-11-18T09:47:08.875Z,1.50
2022-11-18T09:49:38.696Z,1.10
2022-11-18T09:52:14.130Z,0.70
2022-11-18T09:54:41.351Z,0.60
2022-11-18T09:57:49.178Z,1.10
2022-11-18T10:00:24.193Z,0.60
2022-11-18T10:02:55.071Z,0.63
2022-11-18T10:05:27.863Z,0.75
2022-11-18T10:07:54.501Z,0.50
2022-11-18T10:10:30.466Z,0.70
2022-11-18T10:13:27.648Z,0.50
2022-11-18T10:16:03.733Z,0.55
2022-11-18T10:19:00.401Z,0.60
2022-11-18T10:22:09.947Z,0.50
2022-11-18T10:24:45.004Z,0.50
2022-11-18T10:27:15.108Z,0.60
2022-11-18T10:29:43.083Z,0.50
2022-11-18T10:32:18.294Z,0.47
2022-11-18T10:34:54.606Z,0.70
2022-11-18T10:38:00.329Z,0.65
2022-11-18T10:40:29.487Z,0.90
2022-11-18T10:42:56.219Z,0.60
2022-11-18T10:45:22.786Z,0.82
2022-11-18T10:47:59.711Z,1.00
2022-11-18T10:50:28.925Z,0.95
2022-11-18T10:52:55.634Z,0.50
2022-11-18T10:55:29.187Z,0.93
2022-11-18T10:58:03.009Z,0.60
2022-11-18T11:00:44.944Z,0.73
2022-11-18T11:03:59.026Z,0.60
2022-11-18T11:06:35.229Z,1.50
2022-11-18T11:09:22.432Z,1.30
2022-11-18T11:12:04.444Z,1.00
2022-11-18T11:14:51.599Z,0.82
2022-11-18T11:17:39.140Z,1.30
2022-11-18T11:20:20.495Z,0.83
2022-11-18T11:22:47.242Z,0.70
2022-11-18T11:25:17.846Z,0.90
2022-11-18T11:31:19.030Z,1.20
2022-11-18T11:33:54.191Z,2.23
2022-11-18T11:37:02.235Z,1.05
2022-11-18T11:39:59.128Z,1.05
2022-11-18T11:42:35.793Z,0.90
2022-11-18T11:45:27.187Z,1.17
2022-11-18T11:48:09.073Z,0.70
2022-11-18T11:51:05.166Z,1.30
2022-11-18T11:54:09.111Z,0.80
2022-11-18T11:56:48.701Z,0.80
2022-11-18T11:59:38.921Z,1.10
2022-11-18T12:02:31.827Z,0.57
2022-11-18T12:05:08.857Z,0.73
2022-11-18T12:07:57.194Z,0.98
2022-11-18T12:10:30.030Z,0.70
2022-11-18T12:13:23.042Z,0.70
2022-11-18T12:16:20.994Z,1.00
2022-11-18T12:18:56.350Z,1.33
2022-11-18T12:21:46.053Z,1.30
2022-11-18T12:24:31.321Z,0.90
2022-11-18T12:27:05.366Z,1.45
2022-11-18T12:29:55.188Z,0.90
2022-11-18T12:32:43.610Z,1.60
2022-11-18T12:35:13.300Z,1.70
2022-11-18T12:37:57.518Z,1.50
2022-11-18T12:40:53.515Z,1.10
2022-11-18T12:43:44.791Z,1.53
2022-11-18T12:46:29.905Z,1.20
2022-11-18T12:48:56.854Z,1.23
2022-11-18T12:51:24.726Z,1.00
2022-11-18T12:53:52.417Z,1.40
2022-11-18T12:56:19.103Z,1.00
2022-11-18T12:58:51.343Z,1.60
2022-11-18T13:01:21.546Z,1.23
2022-11-18T13:03:48.244Z,1.20
2022-11-18T13:06:23.455Z,1.35
2022-11-18T13:08:57.940Z,1.10
2022-11-18T13:11:46.107Z,0.80
2022-11-18T13:14:37.660Z,1.20
2022-11-18T13:17:41.612Z,0.80
2022-11-18T13:20:37.176Z,0.90
2022-11-18T13:23:56.207Z,0.80
2022-11-18T13:26:29.271Z,0.70
2022-11-18T13:29:17.965Z,0.73
2022-11-18T13:32:03.418Z,0.80
2022-11-18T13:34:32.007Z,0.70
2022-11-18T13:37:00.735Z,0.80
2022-11-18T13:39:32.982Z,0.85
2022-11-18T13:42:06.241Z,0.75
2022-11-18T13:44:37.860Z,0.70
2022-11-18T13:47:38.508Z,0.77
2022-11-18T13:50:10.997Z,0.50
2022-11-18T13:52:56.622Z,0.60
2022-11-18T13:55:26.774Z,0.90
2022-11-18T13:58:03.204Z,0.95
2022-11-18T14:00:32.760Z,1.00
2022-11-18T14:03:22.492Z,1.00
2022-11-18T14:05:56.218Z,0.80
2022-11-18T14:08:37.330Z,0.90
2022-11-18T14:11:07.979Z,0.90
2022-11-18T14:13:48.275Z,0.70
2022-11-18T14:16:17.899Z,0.70
2022-11-18T14:18:50.036Z,0.90
2022-11-18T14:21:27.181Z,0.63
2022-11-18T14:23:54.307Z,0.73
2022-11-18T14:26:30.576Z,0.80
2022-11-18T14:29:03.300Z,2.00
2022-11-18T14:31:31.998Z,1.30
2022-11-18T14:34:21.195Z,1.10
2022-11-18T14:36:49.312Z,1.00
2022-11-18T14:39:27.750Z,0.90
2022-11-18T14:41:55.253Z,1.20
2022-11-18T14:44:24.396Z,1.25
2022-11-18T14:46:59.744Z,1.10
2022-11-18T14:49:28.084Z,1.25
2022-11-18T14:51:55.221Z,1.02
2022-11-18T14:54:26.975Z,1.10
2022-11-18T14:57:01.000Z,1.52
2022-11-18T14:59:28.156Z,1.90
2022-11-18T15:01:56.540Z,1.30
2022-11-18T15:04:23.696Z,1.70
2022-11-18T15:06:50.387Z,2.50
2022-11-18T15:09:17.123Z,2.83
2022-11-18T15:11:44.791Z,3.30
2022-11-18T15:14:11.582Z,1.88
2022-11-18T15:16:38.229Z,4.38
2022-11-18T15:19:06.568Z,4.57
2022-11-18T15:21:33.658Z,2.42
2022-11-18T15:24:00.309Z,2.35
2022-11-18T15:26:35.767Z,3.13
2022-11-18T15:29:02.539Z,2.15
2022-11-18T15:31:29.354Z,2.70
2022-11-18T15:33:56.043Z,2.13
2022-11-18T15:36:27.163Z,1.42
2022-11-18T15:38:54.948Z,1.65
2022-11-18T15:41:25.295Z,1.13
2022-11-18T15:43:53.247Z,3.00
2022-11-18T15:46:22.681Z,2.63
2022-11-18T15:48:56.459Z,3.50
2022-11-18T15:51:24.434Z,2.00
2022-11-18T15:53:51.160Z,2.58
2022-11-18T15:56:23.651Z,2.20
2022-11-18T15:59:04.800Z,2.05
2022-11-18T16:01:34.570Z,2.00
2022-11-18T16:04:01.706Z,2.00
2022-11-18T16:06:28.443Z,1.98
2022-11-18T16:08:59.480Z,1.27
2022-11-18T16:11:46.363Z,1.70
2022-11-18T16:14:14.544Z,3.20
2022-11-18T16:16:42.891Z,1.77
2022-11-18T16:19:11.887Z,1.85
2022-11-18T16:21:47.019Z,3.30
2022-11-18T16:24:25.530Z,1.73
2022-11-18T16:26:52.840Z,5.72
2022-11-18T16:29:21.097Z,4.50
2022-11-18T16:31:52.891Z,2.78
2022-11-18T16:34:22.489Z,1.60
2022-11-18T16:36:52.196Z,4.20
2022-11-18T16:39:25.056Z,3.83
2022-11-18T16:41:54.063Z,1.90
2022-11-18T16:44:20.905Z,2.70
2022-11-18T16:46:57.838Z,8.80
2022-11-18T16:49:26.523Z,4.70
2022-11-18T16:51:55.017Z,4.38
2022-11-18T16:54:25.212Z,5.88
2022-11-18T16:56:53.908Z,6.80
2022-11-18T16:59:24.710Z,5.30
2022-11-18T17:01:53.145Z,11.07
2022-11-18T17:04:20.887Z,11.68
2022-11-18T17:06:48.011Z,14.07
2022-11-18T17:09:17.550Z,7.55
2022-11-18T17:11:45.060Z,9.63
2022-11-18T17:14:12.386Z,5.07
2022-11-18T17:16:39.224Z,4.50
2022-11-18T17:19:16.756Z,3.40
2022-11-18T17:21:44.354Z,4.05
2022-11-18T17:24:13.322Z,1.83
2022-11-18T17:26:40.271Z,2.60
2022-11-18T17:29:07.427Z,4.18
2022-11-18T17:31:34.125Z,2.15
2022-11-18T17:34:00.817Z,2.67
2022-11-18T17:36:27.861Z,2.90
2022-11-18T17:38:59.038Z,2.40
2022-11-18T17:41:45.464Z,2.33
2022-11-18T17:44:14.587Z,2.53
2022-11-18T17:46:41.855Z,8.63
2022-11-18T17:49:14.151Z,3.77
2022-11-18T17:51:41.642Z,2.45
2022-11-18T17:54:09.737Z,3.05
2022-11-18T17:56:36.415Z,3.20
2022-11-18T17:59:03.166Z,5.15
2022-11-18T18:01:30.005Z,4.00
2022-11-18T18:03:56.859Z,2.42
2022-11-18T18:06:23.773Z,7.30
2022-11-18T18:08:55.189Z,6.68
2022-11-18T18:11:21.836Z,4.85
2022-11-18T18:14:07.046Z,5.50
2022-11-18T18:16:34.096Z,9.60
2022-11-18T18:19:02.538Z,8.27
2022-11-18T18:21:29.275Z,6.88
2022-11-18T18:23:56.065Z,9.25
2022-11-18T18:26:28.160Z,10.77
2022-11-18T18:28:59.028Z,5.70
2022-11-18T18:31:26.678Z,4.50
2022-11-18T18:33:53.566Z,8.60
2022-11-18T18:36:21.322Z,6.22
2022-11-18T18:38:48.277Z,4.90
2022-11-18T18:41:17.687Z,6.30
2022-11-18T18:43:46.431Z,10.77
2022-11-18T18:46:32.419Z,7.25
2022-11-18T18:49:09.403Z,6.20
2022-11-18T18:51:37.429Z,7.53
2022-11-18T18:54:04.818Z,8.63
2022-11-18T18:56:32.946Z,16.35
2022-11-18T18:59:00.257Z,17.42
2022-11-18T19:01:28.025Z,16.70
2022-11-18T19:03:57.337Z,9.20
2022-11-18T19:09:16.320Z,5.20
2022-11-18T19:12:01.738Z,4.50
2022-11-18T19:14:28.510Z,3.85
2022-11-18T19:16:56.205Z,3.20
2022-11-18T19:19:43.630Z,4.00
2022-11-18T19:22:13.335Z,4.60
2022-11-18T19:24:50.074Z,4.40
2022-11-18T19:27:18.269Z,4.95
2022-11-18T19:29:45.042Z,5.40
2022-11-18T19:32:11.783Z,5.80
2022-11-18T19:34:38.708Z,5.25
2022-11-18T19:37:05.378Z,5.47
2022-11-18T19:39:32.008Z,4.80
2022-11-18T19:41:58.885Z,3.97
2022-11-18T19:44:25.654Z,3.22
2022-11-18T19:46:52.364Z,2.85
2022-11-18T19:49:19.216Z,2.38
2022-11-18T19:51:47.021Z,1.90
2022-11-18T19:54:13.711Z,1.70
2022-11-18T19:56:40.413Z,2.03
2022-11-18T19:59:07.022Z,3.05
2022-11-18T20:01:33.809Z,4.72
2022-11-18T20:04:05.659Z,13.40
2022-11-18T20:06:34.803Z,19.83
2022-11-18T20:09:02.631Z,26.58
2022-11-18T20:11:29.542Z,28.58
2022-11-18T20:13:56.396Z,26.15
2022-11-18T20:16:24.769Z,17.13
2022-11-18T20:19:17.351Z,6.47
2022-11-18T20:21:44.149Z,10.18
2022-11-18T20:24:15.902Z,13.65
2022-11-18T20:26:43.460Z,10.75
2022-11-18T20:29:10.482Z,8.00
2022-11-18T20:31:37.559Z,7.90
2022-11-18T20:34:05.327Z,5.93
2022-11-18T20:36:35.518Z,7.63
2022-11-18T20:39:05.646Z,11.07
2022-11-18T20:41:32.673Z,11.13
2022-11-18T20:44:00.393Z,5.10
2022-11-18T20:46:27.508Z,4.63
2022-11-18T20:48:54.639Z,4.00
2022-11-18T20:51:23.632Z,5.38
2022-11-18T20:53:51.299Z,5.28
2022-11-18T20:56:20.110Z,3.87
2022-11-18T20:58:47.444Z,3.03
2022-11-18T21:01:16.630Z,3.17
2022-11-18T21:03:48.052Z,4.53
2022-11-18T21:06:15.155Z,8.52
2022-11-18T21:08:42.845Z,8.80
2022-11-18T21:11:12.346Z,8.60
2022-11-18T21:13:58.944Z,4.35
2022-11-18T21:16:27.131Z,4.50
2022-11-18T21:18:53.788Z,4.63
2022-11-18T21:21:38.625Z,4.97
2022-11-18T21:24:06.843Z,9.27
2022-11-18T21:26:35.136Z,7.20
2022-11-18T21:29:04.864Z,8.02
2022-11-18T21:31:32.291Z,15.88
2022-11-18T21:33:59.296Z,8.60
2022-11-18T21:36:27.595Z,7.00
2022-11-18T21:38:54.805Z,6.85
2022-11-18T21:41:21.424Z,6.20
2022-11-18T21:44:05.181Z,6.68
2022-11-18T21:46:34.276Z,7.40
2022-11-18T21:49:01.280Z,6.88
2022-11-18T21:51:28.086Z,6.80
2022-11-18T21:53:54.796Z,47.33
2022-11-18T21:56:25.141Z,35.08
2022-11-18T21:58:52.569Z,6.87
2022-11-18T22:01:20.981Z,5.80
2022-11-18T22:03:55.019Z,10.63
2022-11-18T22:06:24.254Z,9.00
2022-11-18T22:08:51.564Z,8.32
2022-11-18T22:11:18.568Z,7.90
2022-11-18T22:13:45.247Z,9.98
2022-11-18T22:16:15.362Z,8.40
2022-11-18T22:18:44.506Z,8.15
2022-11-18T22:21:29.028Z,10.50
2022-11-18T22:24:00.711Z,6.23
2022-11-18T22:26:28.362Z,5.10
2022-11-18T22:28:56.880Z,5.13
2022-11-18T22:31:25.517Z,10.20
2022-11-18T22:33:52.551Z,7.72
2022-11-18T22:36:21.799Z,8.10
2022-11-18T22:38:48.841Z,10.23
2022-11-18T22:41:37.987Z,7.65
2022-11-18T22:44:08.050Z,9.20
2022-11-18T22:46:39.763Z,8.55
2022-11-18T22:49:07.630Z,5.13
2022-11-18T22:51:36.798Z,4.90
2022-11-18T22:56:52.975Z,4.70
2022-11-18T22:59:19.769Z,5.10
2022-11-18T23:01:46.504Z,5.53
2022-11-18T23:04:13.151Z,8.38
2022-11-18T23:06:39.797Z,10.18
2022-11-18T23:09:06.499Z,10.52
2022-11-18T23:11:51.801Z,7.97
2022-11-18T23:14:18.461Z,5.73
2022-11-18T23:16:45.261Z,6.00
2022-11-18T23:19:15.013Z,5.05
2022-11-18T23:21:42.815Z,3.30
2022-11-18T23:24:17.741Z,3.22
2022-11-18T23:26:45.275Z,4.00
2022-11-18T23:29:13.414Z,6.50
2022-11-18T23:31:42.807Z,6.95
2022-11-18T23:34:11.863Z,6.13
2022-11-18T23:36:38.996Z,6.90
2022-11-18T23:39:06.020Z,5.50
2022-11-18T23:41:32.972Z,5.05
2022-11-18T23:43:59.758Z,5.13
2022-11-18T23:46:27.683Z,5.75
2022-11-18T23:48:54.805Z,4.13
2022-11-18T23:51:22.896Z,4.30
2022-11-18T23:53:54.916Z,5.63
2022-11-18T23:56:23.558Z,6.55
2022-11-18T23:58:52.388Z,6.78
